Terminal Aerodrome Forecast
Issued by NWS Lake Charles, LA

Home | Current Version | Previous Version | Text Only | Print | Product List | Glossary On
Versions: 1 2 3 4 5 6 7 8 9 10 11 12 13 14 15 16 17
000
FTUS44 KLCH 291732
TAFARA
TAF
KARA 291732Z 2918/3018 16028G36KT P6SM OVC025
     FM292000 16024G32KT P6SM BKN035
     FM300100 15022G29KT P6SM SCT015 OVC025
     FM300500 15018G26KT P6SM OVC012
     FM301100 17020G28KT 6SM BR VCTS OVC015CB
      TEMPO 3012/3015 VRB18G30KT 1SM +TSRA BKN008CB OVC015
     FM301500 31015G21KT 6SM BR VCSH OVC025=

USA.gov is the U.S. government's official web portal to all federal, state and local government web resources and services.